Time;durP1;ratioP1;P1;durP2;ratioP2;P2;SDS_P1;SDS_P2;PMS_P1;PMS_P2;Temp;Humidity;BMP_temperature;BMP_pressure;BME280_temperature;BME280_humidity;BME280_pressure;Samples;Min_cycle;Max_cycle;Signal;HPM_P1;HPM_P2
2022/03/11 00:01:54;;;;;;;16.40;9.55;;;;;;;;;;5009295;28;20073;-74
2022/03/11 00:04:20;;;;;;;18.25;8.93;;;;;;;;;;5009758;28;20063;-75
2022/03/11 00:07:05;;;;;;;16.48;9.05;;;;;;;;;;5027631;28;20048;-74
2022/03/11 00:09:31;;;;;;;17.40;9.90;;;;;;;;;;5010220;28;20497;-74
2022/03/11 00:11:57;;;;;;;17.42;9.65;;;;;;;;;;5009954;28;20037;-74
2022/03/11 00:14:24;;;;;;;16.40;9.50;;;;;;;;;;5010267;28;20041;-75
2022/03/11 00:16:50;;;;;;;16.77;9.18;;;;;;;;;;5009764;28;20045;-74
2022/03/11 00:19:16;;;;;;;17.60;9.32;;;;;;;;;;5009660;28;20102;-74
2022/03/11 00:21:42;;;;;;;17.35;9.57;;;;;;;;;;5009805;28;20076;-75
2022/03/11 00:24:08;;;;;;;19.45;9.93;;;;;;;;;;5009814;28;20045;-73
2022/03/11 00:26:34;;;;;;;16.27;9.75;;;;;;;;;;5027348;28;20045;-75
2022/03/11 00:29:01;;;;;;;16.77;9.38;;;;;;;;;;5026704;28;20531;-74
2022/03/11 00:31:30;;;;;;;19.58;9.55;;;;;;;;;;5009561;28;20064;-75
2022/03/11 00:33:56;;;;;;;17.88;9.40;;;;;;;;;;5026916;28;20508;-74
2022/03/11 00:36:23;;;;;;;18.05;9.95;;;;;;;;;;5027246;28;20041;-75
2022/03/11 00:38:49;;;;;;;23.02;9.65;;;;;;;;;;5027020;28;20085;-75
2022/03/11 00:41:16;;;;;;;19.40;10.15;;;;;;;;;;5027659;28;20041;-75
2022/03/11 00:43:42;;;;;;;16.33;9.68;;;;;;;;;;5026880;28;20414;-75
2022/03/11 00:46:09;;;;;;;19.48;10.65;;;;;;;;;;5008961;28;20320;-76
2022/03/11 00:48:35;;;;;;;12.70;6.60;;;;;;;;;;5009933;28;20498;-76
2022/03/11 00:51:01;;;;;;;18.85;9.25;;;;;;;;;;5008879;28;20038;-76
2022/03/11 00:53:30;;;;;;;19.95;9.88;;;;;;;;;;5027515;28;20559;-76
2022/03/11 00:55:56;;;;;;;16.38;9.13;;;;;;;;;;5009599;28;20153;-76
2022/03/11 00:58:22;;;;;;;17.05;10.27;;;;;;;;;;4993305;28;20120;-74
2022/03/11 01:00:48;;;;;;;15.07;8.57;;;;;;;;;;5009340;28;20052;-76
2022/03/11 01:03:14;;;;;;;18.05;9.35;;;;;;;;;;5009638;28;20045;-76
2022/03/11 01:05:40;;;;;;;17.50;9.75;;;;;;;;;;5009049;28;20083;-75
2022/03/11 01:08:06;;;;;;;15.07;9.15;;;;;;;;;;5009541;28;20474;-75
2022/03/11 01:10:32;;;;;;;17.23;9.10;;;;;;;;;;5027313;28;20481;-75
2022/03/11 01:12:59;;;;;;;16.70;9.65;;;;;;;;;;5009019;28;20444;-74
2022/03/11 01:15:25;;;;;;;19.55;10.02;;;;;;;;;;5027055;28;20502;-75
2022/03/11 01:17:51;;;;;;;14.32;8.45;;;;;;;;;;5008471;28;20060;-74
2022/03/11 01:20:17;;;;;;;17.55;8.82;;;;;;;;;;5008824;28;20053;-74
2022/03/11 01:22:43;;;;;;;16.90;8.43;;;;;;;;;;4992596;28;20033;-75
2022/03/11 01:25:09;;;;;;;17.77;9.48;;;;;;;;;;5008772;28;20049;-76
2022/03/11 01:27:39;;;;;;;16.35;7.38;;;;;;;;;;5009160;28;20039;-76
2022/03/11 01:30:07;;;;;;;15.70;8.20;;;;;;;;;;5009067;28;20045;-76
2022/03/11 01:32:33;;;;;;;14.35;7.57;;;;;;;;;;5009062;28;20564;-76
2022/03/11 01:34:59;;;;;;;16.30;7.97;;;;;;;;;;5009033;28;20379;-75
2022/03/11 01:37:25;;;;;;;13.57;8.23;;;;;;;;;;4992298;28;20120;-76
2022/03/11 01:39:51;;;;;;;16.80;8.18;;;;;;;;;;5008550;28;20056;-74
2022/03/11 01:42:17;;;;;;;18.13;10.35;;;;;;;;;;4993094;28;20385;-75
2022/03/11 01:44:43;;;;;;;18.02;9.60;;;;;;;;;;5008468;28;20136;-76
2022/03/11 01:47:09;;;;;;;19.80;8.65;;;;;;;;;;4992791;28;20485;-75
2022/03/11 01:49:35;;;;;;;16.13;8.90;;;;;;;;;;5008781;28;20048;-75
2022/03/11 01:52:01;;;;;;;18.20;8.48;;;;;;;;;;5016206;28;20041;-76
2022/03/11 01:54:28;;;;;;;18.42;9.15;;;;;;;;;;5008880;28;20060;-77
2022/03/11 01:56:54;;;;;;;20.42;8.30;;;;;;;;;;5008260;28;20037;-76
2022/03/11 01:59:20;;;;;;;11.93;6.72;;;;;;;;;;5009002;28;20431;-76
2022/03/11 02:01:47;;;;;;;18.48;9.65;;;;;;;;;;4992192;28;20042;-76
2022/03/11 02:04:13;;;;;;;18.05;9.35;;;;;;;;;;5008595;28;20075;-74
2022/03/11 02:06:39;;;;;;;17.70;8.98;;;;;;;;;;5008495;28;20044;-75
2022/03/11 02:09:06;;;;;;;15.13;8.43;;;;;;;;;;5026272;28;20038;-74
2022/03/11 02:11:32;;;;;;;17.10;8.95;;;;;;;;;;5026199;28;20486;-75
2022/03/11 02:13:59;;;;;;;15.32;8.82;;;;;;;;;;5026066;28;20041;-73
2022/03/11 02:16:25;;;;;;;19.02;8.93;;;;;;;;;;5008581;28;20033;-75
2022/03/11 02:18:52;;;;;;;19.08;9.77;;;;;;;;;;5008076;28;20068;-76
2022/03/11 02:21:18;;;;;;;16.02;7.82;;;;;;;;;;5008498;28;20095;-74
2022/03/11 02:23:45;;;;;;;18.08;10.30;;;;;;;;;;4991853;28;20071;-74
2022/03/11 02:26:12;;;;;;;18.55;9.45;;;;;;;;;;5010875;28;20129;-73
2022/03/11 02:28:38;;;;;;;15.07;8.27;;;;;;;;;;5029346;28;20034;-73
2022/03/11 02:31:04;;;;;;;16.70;9.07;;;;;;;;;;5029063;28;20033;-75
2022/03/11 02:33:31;;;;;;;18.52;9.95;;;;;;;;;;5011970;28;20079;-75
2022/03/11 02:35:57;;;;;;;18.08;9.52;;;;;;;;;;5024475;28;20042;-77
2022/03/11 02:38:23;;;;;;;17.95;9.70;;;;;;;;;;5011311;28;20049;-75
2022/03/11 02:40:49;;;;;;;18.95;10.48;;;;;;;;;;5011564;28;20042;-76
2022/03/11 02:43:15;;;;;;;17.17;9.13;;;;;;;;;;5029226;28;20065;-77
2022/03/11 02:45:42;;;;;;;16.88;9.52;;;;;;;;;;5011383;28;20121;-76
2022/03/11 02:48:08;;;;;;;19.52;10.15;;;;;;;;;;5011508;28;20132;-76
2022/03/11 02:50:34;;;;;;;22.85;9.48;;;;;;;;;;5012075;28;20048;-77
2022/03/11 02:53:00;;;;;;;19.52;9.25;;;;;;;;;;5011363;28;20045;-76
2022/03/11 02:55:26;;;;;;;16.88;9.63;;;;;;;;;;4995058;28;20068;-75
2022/03/11 02:57:52;;;;;;;17.48;9.15;;;;;;;;;;5011021;28;20041;-76
2022/03/11 03:00:18;;;;;;;23.65;9.32;;;;;;;;;;5009214;28;20148;-75
2022/03/11 03:02:45;;;;;;;17.83;8.75;;;;;;;;;;5003931;28;20038;-73
2022/03/11 03:05:11;;;;;;;20.08;10.00;;;;;;;;;;4994222;28;20050;-76
2022/03/11 03:07:37;;;;;;;13.32;7.20;;;;;;;;;;4993628;28;20033;-75
2022/03/11 03:10:04;;;;;;;14.98;7.15;;;;;;;;;;5011037;28;20041;-75
2022/03/11 03:12:30;;;;;;;17.48;9.48;;;;;;;;;;5011358;28;20116;-76
2022/03/11 03:14:56;;;;;;;14.57;7.40;;;;;;;;;;5011224;28;20405;-72
2022/03/11 03:17:22;;;;;;;17.75;9.98;;;;;;;;;;5010872;28;20049;-72
2022/03/11 03:19:48;;;;;;;19.98;10.43;;;;;;;;;;5010536;28;20447;-74
2022/03/11 03:22:15;;;;;;;18.35;8.60;;;;;;;;;;5010974;28;20064;-75
2022/03/11 03:24:42;;;;;;;16.45;9.23;;;;;;;;;;5010873;28;20055;-75
2022/03/11 03:27:09;;;;;;;21.58;8.20;;;;;;;;;;5027887;28;20494;-75
2022/03/11 03:29:35;;;;;;;15.00;8.07;;;;;;;;;;5010755;28;20045;-76
2022/03/11 03:32:02;;;;;;;17.58;9.23;;;;;;;;;;4993878;28;20036;-76
2022/03/11 03:34:32;;;;;;;18.05;10.00;;;;;;;;;;5028200;28;20034;-75
2022/03/11 03:37:02;;;;;;;16.67;7.78;;;;;;;;;;5027960;28;20087;-76
2022/03/11 03:39:28;;;;;;;17.05;9.50;;;;;;;;;;4994493;28;20394;-76
2022/03/11 03:41:56;;;;;;;20.05;9.20;;;;;;;;;;5010527;28;20130;-77
2022/03/11 03:44:23;;;;;;;18.67;8.43;;;;;;;;;;4992856;28;20104;-76
2022/03/11 03:46:50;;;;;;;17.83;9.50;;;;;;;;;;4987578;28;20046;-76
2022/03/11 03:49:16;;;;;;;19.65;9.75;;;;;;;;;;4971731;28;20491;-73
2022/03/11 03:51:42;;;;;;;19.83;9.82;;;;;;;;;;4988526;28;20043;-73
2022/03/11 03:54:10;;;;;;;20.65;9.68;;;;;;;;;;4987300;28;20035;-75
2022/03/11 03:56:36;;;;;;;18.77;9.38;;;;;;;;;;4987076;28;20046;-73
2022/03/11 03:59:06;;;;;;;16.60;9.07;;;;;;;;;;4971224;28;20103;-73
2022/03/11 04:01:36;;;;;;;17.92;9.95;;;;;;;;;;4987692;28;20046;-74
2022/03/11 04:04:03;;;;;;;21.13;10.13;;;;;;;;;;4987388;28;20038;-76
2022/03/11 04:06:29;;;;;;;19.02;9.45;;;;;;;;;;4987581;28;20042;-73
2022/03/11 04:08:59;;;;;;;21.23;10.43;;;;;;;;;;4987426;28;20042;-75
2022/03/11 04:11:28;;;;;;;21.25;10.65;;;;;;;;;;4987358;28;20026;-76
2022/03/11 04:13:55;;;;;;;18.15;10.00;;;;;;;;;;4987471;28;20145;-76
2022/03/11 04:16:21;;;;;;;18.02;9.43;;;;;;;;;;4987631;28;20038;-74
2022/03/11 04:18:47;;;;;;;18.60;10.30;;;;;;;;;;4987899;28;20043;-76
2022/03/11 04:21:13;;;;;;;17.63;9.95;;;;;;;;;;4970971;28;20042;-76
2022/03/11 04:23:43;;;;;;;16.67;8.57;;;;;;;;;;4987895;28;20050;-73
2022/03/11 04:26:09;;;;;;;19.25;9.68;;;;;;;;;;4984448;28;20127;-74
2022/03/11 04:28:36;;;;;;;17.77;8.57;;;;;;;;;;4988117;28;20061;-73
2022/03/11 04:31:04;;;;;;;20.05;11.32;;;;;;;;;;4987113;28;20087;-76
2022/03/11 04:33:30;;;;;;;19.75;9.85;;;;;;;;;;4987321;28;20041;-74
2022/03/11 04:35:56;;;;;;;27.85;11.10;;;;;;;;;;4986926;28;20046;-74
2022/03/11 04:38:22;;;;;;;21.13;10.63;;;;;;;;;;4987162;28;20045;-74
2022/03/11 04:40:48;;;;;;;19.92;10.50;;;;;;;;;;4986671;28;20046;-73
2022/03/11 04:43:14;;;;;;;23.75;10.40;;;;;;;;;;4993300;28;20057;-76
2022/03/11 04:45:40;;;;;;;27.30;11.20;;;;;;;;;;5010071;28;20056;-76
2022/03/11 04:48:07;;;;;;;18.88;10.68;;;;;;;;;;5009192;28;20092;-73
2022/03/11 04:50:33;;;;;;;20.10;10.43;;;;;;;;;;5009690;28;20041;-73
2022/03/11 04:52:59;;;;;;;16.33;8.13;;;;;;;;;;5027072;28;20041;-74
2022/03/11 04:55:25;;;;;;;19.55;11.00;;;;;;;;;;5027184;28;20041;-75
2022/03/11 04:57:51;;;;;;;21.23;10.77;;;;;;;;;;5027100;28;20461;-74
2022/03/11 05:00:17;;;;;;;20.38;10.65;;;;;;;;;;5007395;28;20072;-75
2022/03/11 05:02:46;;;;;;;18.63;10.18;;;;;;;;;;5022937;28;20142;-77
2022/03/11 05:05:13;;;;;;;20.20;9.00;;;;;;;;;;5008639;28;20045;-75
2022/03/11 05:07:40;;;;;;;21.58;11.05;;;;;;;;;;5009035;28;20025;-76
2022/03/11 05:10:10;;;;;;;19.38;10.80;;;;;;;;;;5008868;28;20041;-74
2022/03/11 05:12:37;;;;;;;20.63;10.95;;;;;;;;;;5027077;28;20379;-74
2022/03/11 05:15:04;;;;;;;20.63;11.07;;;;;;;;;;5027288;28;20037;-74
2022/03/11 05:17:30;;;;;;;14.95;8.48;;;;;;;;;;5009283;28;20038;-81
2022/03/11 05:19:56;;;;;;;20.98;11.10;;;;;;;;;;5026706;28;20037;-75
2022/03/11 05:22:22;;;;;;;22.17;10.70;;;;;;;;;;5009179;28;20116;-74
2022/03/11 05:24:48;;;;;;;16.38;8.32;;;;;;;;;;5026554;28;20124;-74
2022/03/11 05:27:15;;;;;;;22.80;9.23;;;;;;;;;;5008628;28;20033;-77
2022/03/11 05:29:41;;;;;;;20.10;10.82;;;;;;;;;;5024526;28;20538;-74
2022/03/11 05:32:07;;;;;;;21.58;11.02;;;;;;;;;;5008397;28;20073;-75
2022/03/11 05:34:42;;;;;;;22.77;11.77;;;;;;;;;;5008778;28;20037;-74
2022/03/11 05:37:09;;;;;;;20.23;9.85;;;;;;;;;;5008604;28;20067;-75
2022/03/11 05:39:35;;;;;;;26.35;11.30;;;;;;;;;;5008768;28;20045;-76
2022/03/11 05:42:01;;;;;;;22.27;11.75;;;;;;;;;;5008871;28;20034;-76
2022/03/11 05:44:27;;;;;;;22.27;11.55;;;;;;;;;;5008826;28;20549;-76
2022/03/11 05:46:53;;;;;;;23.13;12.35;;;;;;;;;;5008577;28;20114;-76
2022/03/11 05:49:20;;;;;;;22.08;11.23;;;;;;;;;;5008542;28;20379;-74
2022/03/11 05:51:46;;;;;;;19.77;10.18;;;;;;;;;;5025978;28;20038;-74
2022/03/11 05:54:12;;;;;;;22.85;11.82;;;;;;;;;;5008963;28;20042;-74
2022/03/11 05:56:38;;;;;;;23.05;11.70;;;;;;;;;;5026660;28;20037;-74
2022/03/11 05:59:05;;;;;;;25.73;12.82;;;;;;;;;;5008436;28;20042;-75
2022/03/11 06:01:31;;;;;;;20.77;11.00;;;;;;;;;;5029817;28;20094;-74
2022/03/11 06:03:57;;;;;;;21.38;9.60;;;;;;;;;;5029574;28;20375;-74
2022/03/11 06:06:24;;;;;;;22.10;11.07;;;;;;;;;;5011756;28;20037;-74
2022/03/11 06:08:50;;;;;;;27.65;13.43;;;;;;;;;;5029358;28;20084;-75
2022/03/11 06:11:16;;;;;;;21.08;10.43;;;;;;;;;;5011963;28;20048;-73
2022/03/11 06:13:42;;;;;;;19.58;9.80;;;;;;;;;;5029947;28;20034;-75
2022/03/11 06:16:08;;;;;;;26.50;13.55;;;;;;;;;;5011767;28;20053;-76
2022/03/11 06:18:34;;;;;;;16.55;8.85;;;;;;;;;;5011776;28;20042;-76
2022/03/11 06:21:00;;;;;;;21.35;11.00;;;;;;;;;;5012067;28;20048;-75
2022/03/11 06:23:26;;;;;;;21.30;10.85;;;;;;;;;;4979445;28;20486;-76
2022/03/11 06:25:52;;;;;;;23.02;12.60;;;;;;;;;;4994744;28;20130;-76
2022/03/11 06:28:18;;;;;;;22.38;11.48;;;;;;;;;;5011541;28;20037;-74
2022/03/11 06:30:46;;;;;;;24.30;12.55;;;;;;;;;;5011682;28;20045;-74
2022/03/11 06:33:12;;;;;;;13.05;6.20;;;;;;;;;;5029736;28;20069;-77
2022/03/11 06:35:39;;;;;;;24.98;11.65;;;;;;;;;;4995807;28;20455;-74
2022/03/11 06:38:05;;;;;;;11.52;7.03;;;;;;;;;;5011693;28;20754;-74
2022/03/11 06:40:31;;;;;;;21.95;10.68;;;;;;;;;;5011731;28;21308;-74
2022/03/11 06:42:57;;;;;;;27.45;13.73;;;;;;;;;;5010849;28;20490;-74
2022/03/11 06:45:24;;;;;;;25.27;13.13;;;;;;;;;;4994950;28;20053;-73
2022/03/11 06:47:50;;;;;;;24.58;12.52;;;;;;;;;;5028504;28;20038;-74
2022/03/11 06:50:17;;;;;;;22.90;12.20;;;;;;;;;;5010684;28;20087;-75
2022/03/11 06:52:43;;;;;;;23.38;12.23;;;;;;;;;;5027406;28;20056;-76
2022/03/11 06:55:10;;;;;;;22.73;13.27;;;;;;;;;;5011439;28;20105;-76
2022/03/11 06:57:36;;;;;;;23.05;12.30;;;;;;;;;;5029294;28;20068;-76
2022/03/11 07:00:04;;;;;;;24.20;12.52;;;;;;;;;;5028751;28;20489;-76
2022/03/11 07:02:31;;;;;;;21.58;12.40;;;;;;;;;;5029192;28;20037;-76
2022/03/11 07:04:57;;;;;;;24.17;12.98;;;;;;;;;;5010946;28;20041;-76
2022/03/11 07:07:24;;;;;;;23.40;12.95;;;;;;;;;;5011487;28;20068;-76
2022/03/11 07:09:50;;;;;;;24.00;13.20;;;;;;;;;;5028483;28;20042;-76
2022/03/11 07:12:16;;;;;;;22.92;13.13;;;;;;;;;;4994559;28;20522;-76
2022/03/11 07:14:43;;;;;;;23.67;13.57;;;;;;;;;;5010770;28;20033;-77
2022/03/11 07:17:09;;;;;;;22.77;13.43;;;;;;;;;;4979058;28;20485;-77
2022/03/11 07:19:36;;;;;;;22.52;12.85;;;;;;;;;;5011208;28;20034;-75
2022/03/11 07:22:05;;;;;;;22.98;12.90;;;;;;;;;;5010605;28;20120;-75
2022/03/11 07:24:32;;;;;;;22.35;12.63;;;;;;;;;;5010848;28;20037;-75
2022/03/11 07:26:58;;;;;;;24.02;12.77;;;;;;;;;;5010240;28;20049;-75
2022/03/11 07:29:24;;;;;;;21.30;12.18;;;;;;;;;;4994569;28;20486;-75
2022/03/11 07:31:51;;;;;;;20.70;12.70;;;;;;;;;;5010514;28;20041;-77
2022/03/11 07:34:17;;;;;;;16.02;8.73;;;;;;;;;;5010694;28;20052;-78
2022/03/11 07:36:43;;;;;;;21.98;13.77;;;;;;;;;;5011244;28;20045;-75
2022/03/11 07:39:10;;;;;;;21.55;13.45;;;;;;;;;;5021214;28;20086;-73
2022/03/11 07:41:37;;;;;;;20.60;11.77;;;;;;;;;;5011088;28;20430;-81
2022/03/11 07:44:04;;;;;;;21.25;12.77;;;;;;;;;;5027887;28;20058;-75
2022/03/11 07:46:31;;;;;;;22.08;12.57;;;;;;;;;;4994223;28;20116;-76
2022/03/11 07:48:58;;;;;;;25.75;13.57;;;;;;;;;;5027604;28;20048;-72
2022/03/11 07:51:25;;;;;;;24.45;13.95;;;;;;;;;;5010495;28;20034;-74
2022/03/11 07:53:51;;;;;;;19.50;10.85;;;;;;;;;;5010111;28;20069;-73
2022/03/11 07:56:17;;;;;;;22.83;12.23;;;;;;;;;;5010728;28;20458;-72
2022/03/11 07:58:44;;;;;;;24.15;13.55;;;;;;;;;;5028476;28;20108;-74
2022/03/11 08:01:10;;;;;;;21.42;13.43;;;;;;;;;;5009511;28;20073;-73
2022/03/11 08:03:37;;;;;;;22.70;13.15;;;;;;;;;;5027838;28;20037;-73
2022/03/11 08:06:04;;;;;;;22.25;12.48;;;;;;;;;;5009967;28;20124;-73
2022/03/11 08:08:30;;;;;;;22.92;12.52;;;;;;;;;;5010648;28;20394;-73
2022/03/11 08:10:56;;;;;;;22.65;13.43;;;;;;;;;;5009829;28;20044;-74
2022/03/11 08:13:23;;;;;;;24.08;14.35;;;;;;;;;;5027870;28;20041;-73
2022/03/11 08:15:49;;;;;;;21.27;12.05;;;;;;;;;;5010036;28;20049;-72
2022/03/11 08:18:15;;;;;;;24.23;13.88;;;;;;;;;;5002475;28;20042;-72
2022/03/11 08:20:42;;;;;;;25.67;12.98;;;;;;;;;;4993739;28;20520;-74
2022/03/11 08:23:08;;;;;;;26.00;14.05;;;;;;;;;;5008400;28;20094;-75
2022/03/11 08:25:35;;;;;;;23.77;13.43;;;;;;;;;;5009660;28;20037;-75
2022/03/11 08:28:01;;;;;;;23.35;13.50;;;;;;;;;;5009550;28;20094;-76
2022/03/11 08:30:27;;;;;;;22.45;12.85;;;;;;;;;;4993581;28;20056;-75
2022/03/11 08:32:55;;;;;;;24.05;14.30;;;;;;;;;;5009372;28;20140;-75
2022/03/11 08:35:22;;;;;;;26.73;14.02;;;;;;;;;;5007442;28;20045;-75
2022/03/11 08:37:48;;;;;;;23.60;13.32;;;;;;;;;;5027733;28;20045;-75
2022/03/11 08:40:14;;;;;;;24.15;12.48;;;;;;;;;;5009534;28;21086;-74
2022/03/11 08:42:41;;;;;;;26.75;13.70;;;;;;;;;;5009821;28;20085;-74
2022/03/11 08:45:09;;;;;;;22.60;13.25;;;;;;;;;;5009166;28;20056;-78
2022/03/11 08:47:35;;;;;;;20.85;13.52;;;;;;;;;;5009514;28;20048;-74
2022/03/11 08:50:04;;;;;;;22.27;12.93;;;;;;;;;;5009160;28;20041;-74
2022/03/11 08:52:30;;;;;;;19.63;12.43;;;;;;;;;;5019989;28;20390;-75
2022/03/11 08:54:57;;;;;;;23.90;12.80;;;;;;;;;;5026810;28;20033;-75
2022/03/11 08:57:24;;;;;;;21.90;12.60;;;;;;;;;;5009606;28;20116;-76
2022/03/11 08:59:50;;;;;;;23.05;14.07;;;;;;;;;;4993184;28;20037;-74
2022/03/11 09:02:17;;;;;;;21.55;13.55;;;;;;;;;;5009224;28;20079;-75
2022/03/11 09:04:43;;;;;;;20.77;12.73;;;;;;;;;;5027408;28;20498;-77
2022/03/11 09:07:09;;;;;;;21.00;13.27;;;;;;;;;;5009355;28;20509;-74
2022/03/11 09:09:36;;;;;;;20.33;12.70;;;;;;;;;;5009774;28;20431;-73
2022/03/11 09:12:03;;;;;;;22.45;14.13;;;;;;;;;;5026752;28;20151;-76
2022/03/11 09:14:30;;;;;;;21.73;14.30;;;;;;;;;;5009632;28;20616;-74
2022/03/11 09:16:56;;;;;;;19.98;12.98;;;;;;;;;;5008817;28;20056;-74
2022/03/11 09:19:22;;;;;;;22.92;14.13;;;;;;;;;;5009428;28;20046;-75
2022/03/11 09:21:48;;;;;;;21.30;12.98;;;;;;;;;;5009490;28;20446;-74
2022/03/11 09:24:14;;;;;;;21.48;13.57;;;;;;;;;;5009090;28;20579;-74
2022/03/11 09:26:40;;;;;;;21.25;13.73;;;;;;;;;;5009089;28;20102;-74
2022/03/11 09:29:07;;;;;;;19.83;13.35;;;;;;;;;;5026057;28;20120;-75
2022/03/11 09:31:34;;;;;;;21.00;13.48;;;;;;;;;;5008632;28;20037;-74
2022/03/11 09:34:00;;;;;;;21.20;13.65;;;;;;;;;;5027034;28;20109;-74
2022/03/11 09:36:26;;;;;;;20.05;13.27;;;;;;;;;;4996211;28;20087;-76
2022/03/11 09:38:52;;;;;;;21.83;14.38;;;;;;;;;;5030341;28;20033;-80
2022/03/11 09:41:20;;;;;;;21.27;13.43;;;;;;;;;;5012576;28;20440;-74
2022/03/11 09:43:46;;;;;;;22.02;12.77;;;;;;;;;;5012515;28;20094;-73
2022/03/11 09:46:14;;;;;;;21.08;14.13;;;;;;;;;;5011969;28;20083;-74
2022/03/11 09:48:41;;;;;;;21.30;13.52;;;;;;;;;;4995967;28;20152;-74
2022/03/11 09:51:09;;;;;;;21.23;13.77;;;;;;;;;;4995829;28;20502;-73
2022/03/11 09:53:35;;;;;;;26.17;13.50;;;;;;;;;;5012017;28;20044;-75
2022/03/11 09:56:02;;;;;;;25.58;13.25;;;;;;;;;;5029627;28;20048;-76
2022/03/11 09:58:28;;;;;;;20.92;14.13;;;;;;;;;;5012640;28;20079;-75
2022/03/11 10:00:55;;;;;;;18.35;12.75;;;;;;;;;;5011818;28;20049;-78
2022/03/11 10:03:22;;;;;;;21.85;13.60;;;;;;;;;;5012174;28;20086;-75
2022/03/11 10:05:48;;;;;;;19.50;13.45;;;;;;;;;;5029716;28;20085;-76
2022/03/11 10:08:14;;;;;;;20.88;12.63;;;;;;;;;;5011954;28;20107;-74
2022/03/11 10:10:41;;;;;;;21.13;14.02;;;;;;;;;;5012445;28;20366;-74
2022/03/11 10:13:08;;;;;;;19.40;13.02;;;;;;;;;;5029530;28;20603;-75
2022/03/11 10:15:35;;;;;;;19.77;13.07;;;;;;;;;;5029517;28;20056;-76
2022/03/11 10:18:02;;;;;;;20.10;13.05;;;;;;;;;;5011487;28;20038;-76
2022/03/11 10:20:29;;;;;;;20.25;12.88;;;;;;;;;;5011685;28;20094;-74
2022/03/11 10:22:57;;;;;;;21.30;13.40;;;;;;;;;;5029483;28;20037;-78
2022/03/11 10:25:30;;;;;;;19.50;13.38;;;;;;;;;;5011169;28;20133;-73
2022/03/11 10:28:02;;;;;;;22.00;13.95;;;;;;;;;;5028708;28;20114;-76
2022/03/11 10:30:37;;;;;;;20.80;13.48;;;;;;;;;;5011885;28;20317;-75
2022/03/11 10:33:13;;;;;;;20.63;13.80;;;;;;;;;;4995225;28;20087;-75
2022/03/11 10:35:42;;;;;;;20.60;13.50;;;;;;;;;;5029736;28;20052;-74
2022/03/11 10:38:10;;;;;;;20.02;13.90;;;;;;;;;;4995470;28;20367;-76
2022/03/11 10:40:37;;;;;;;19.40;14.00;;;;;;;;;;5011440;28;20069;-74
2022/03/11 10:43:17;;;;;;;20.83;13.73;;;;;;;;;;5029290;28;20402;-75
2022/03/11 10:46:02;;;;;;;19.50;14.05;;;;;;;;;;5010421;28;20053;-74
2022/03/11 10:48:46;;;;;;;22.60;14.13;;;;;;;;;;5029157;28;20128;-74
2022/03/11 10:51:13;;;;;;;21.73;13.88;;;;;;;;;;5011313;28;20073;-76
2022/03/11 10:53:40;;;;;;;22.02;14.02;;;;;;;;;;5011146;28;20394;-81
2022/03/11 10:56:07;;;;;;;19.33;13.57;;;;;;;;;;5026507;28;20096;-73
2022/03/11 10:58:36;;;;;;;21.90;13.27;;;;;;;;;;5011651;28;20479;-73
2022/03/11 11:01:02;;;;;;;22.67;14.75;;;;;;;;;;5028656;28;20054;-73
2022/03/11 11:03:29;;;;;;;19.15;13.05;;;;;;;;;;5011288;28;20049;-73
2022/03/11 11:05:55;;;;;;;19.75;13.85;;;;;;;;;;5011237;28;20490;-75
2022/03/11 11:08:22;;;;;;;19.77;13.95;;;;;;;;;;5011193;28;20044;-75
2022/03/11 11:10:48;;;;;;;21.88;13.80;;;;;;;;;;5010863;28;20045;-74
2022/03/11 11:13:15;;;;;;;21.45;14.80;;;;;;;;;;5010934;28;20094;-75
2022/03/11 11:15:41;;;;;;;19.70;13.85;;;;;;;;;;5011182;28;20045;-77
2022/03/11 11:18:14;;;;;;;23.05;13.77;;;;;;;;;;4994696;28;20046;-75
2022/03/11 11:20:47;;;;;;;19.38;13.43;;;;;;;;;;4994778;28;20091;-76
2022/03/11 11:23:14;;;;;;;22.10;13.80;;;;;;;;;;5010154;28;20068;-75
2022/03/11 11:25:41;;;;;;;22.55;14.23;;;;;;;;;;5028935;28;20041;-73
2022/03/11 11:28:26;;;;;;;20.75;13.43;;;;;;;;;;5010529;28;20113;-74
2022/03/11 11:30:57;;;;;;;21.02;13.60;;;;;;;;;;5010933;28;20052;-75
2022/03/11 11:33:23;;;;;;;20.80;14.73;;;;;;;;;;5011130;28;20390;-75
2022/03/11 11:35:56;;;;;;;20.65;15.15;;;;;;;;;;5010757;28;20053;-74
2022/03/11 11:38:31;;;;;;;20.88;13.48;;;;;;;;;;5028840;28;20497;-72
2022/03/11 11:40:58;;;;;;;21.53;14.83;;;;;;;;;;5027906;28;20034;-74
2022/03/11 11:43:31;;;;;;;21.55;15.02;;;;;;;;;;5027938;28;20272;-77
2022/03/11 11:45:58;;;;;;;29.33;14.98;;;;;;;;;;5010327;28;20601;-73
2022/03/11 11:48:41;;;;;;;21.08;14.93;;;;;;;;;;5010138;28;20044;-77
2022/03/11 11:51:11;;;;;;;21.50;13.70;;;;;;;;;;5010003;28;20777;-73
2022/03/11 11:53:50;;;;;;;24.13;15.43;;;;;;;;;;5010469;28;20085;-75
2022/03/11 11:56:35;;;;;;;21.23;14.50;;;;;;;;;;5010496;28;20037;-75
2022/03/11 11:59:03;;;;;;;25.52;15.60;;;;;;;;;;5009174;28;20041;-76
2022/03/11 12:01:46;;;;;;;21.58;15.05;;;;;;;;;;5010944;28;20098;-73
2022/03/11 12:04:31;;;;;;;24.77;15.18;;;;;;;;;;5009959;28;20177;-73
2022/03/11 12:07:02;;;;;;;26.85;15.43;;;;;;;;;;4993586;28;20069;-73
2022/03/11 12:09:40;;;;;;;24.25;15.48;;;;;;;;;;4994492;28;20068;-72
2022/03/11 12:12:15;;;;;;;20.45;13.85;;;;;;;;;;5010186;28;20081;-74
2022/03/11 12:15:00;;;;;;;21.75;14.82;;;;;;;;;;4993622;28;20044;-73
2022/03/11 12:17:37;;;;;;;23.42;14.40;;;;;;;;;;5010403;28;20064;-72
2022/03/11 12:20:21;;;;;;;23.70;14.45;;;;;;;;;;5027740;28;20057;-74
2022/03/11 12:23:03;;;;;;;24.73;15.52;;;;;;;;;;5010044;28;20056;-75
2022/03/11 12:25:32;;;;;;;23.23;15.23;;;;;;;;;;5010189;28;20052;-78
2022/03/11 12:28:00;;;;;;;22.65;15.30;;;;;;;;;;5009381;28;20045;-73
2022/03/11 12:30:53;;;;;;;23.27;14.88;;;;;;;;;;5010358;28;20045;-78
2022/03/11 12:33:20;;;;;;;21.42;14.30;;;;;;;;;;5009464;28;20506;-74
2022/03/11 12:35:48;;;;;;;24.30;15.38;;;;;;;;;;5009914;28;20450;-74
2022/03/11 12:38:22;;;;;;;25.15;15.32;;;;;;;;;;5009705;28;20482;-74
2022/03/11 12:40:49;;;;;;;25.02;15.07;;;;;;;;;;5009991;28;20397;-73
2022/03/11 12:43:16;;;;;;;23.30;15.40;;;;;;;;;;5026865;28;20554;-72
2022/03/11 12:45:44;;;;;;;24.05;15.05;;;;;;;;;;5008999;28;20049;-72
2022/03/11 12:48:11;;;;;;;22.77;14.65;;;;;;;;;;5009244;28;20045;-72
2022/03/11 12:50:39;;;;;;;25.98;15.05;;;;;;;;;;5009703;28;20490;-73
2022/03/11 12:53:06;;;;;;;21.90;14.35;;;;;;;;;;5026665;28;20042;-73
2022/03/11 12:55:33;;;;;;;23.50;13.98;;;;;;;;;;5027328;28;20046;-73
2022/03/11 12:58:04;;;;;;;24.10;14.85;;;;;;;;;;5009668;28;20076;-74
2022/03/11 13:00:31;;;;;;;23.35;14.82;;;;;;;;;;5010035;28;20550;-75
2022/03/11 13:02:58;;;;;;;24.52;14.00;;;;;;;;;;5007567;28;20045;-75
2022/03/11 13:05:30;;;;;;;24.48;14.15;;;;;;;;;;5009476;28;20041;-77
2022/03/11 13:08:01;;;;;;;23.88;13.95;;;;;;;;;;5008969;28;20030;-74
2022/03/11 13:10:28;;;;;;;29.90;15.73;;;;;;;;;;5008812;28;20410;-75
2022/03/11 13:12:55;;;;;;;22.95;15.00;;;;;;;;;;5009666;28;20399;-74
2022/03/11 13:15:22;;;;;;;23.13;15.48;;;;;;;;;;4992967;28;20037;-74
2022/03/11 13:17:51;;;;;;;25.80;15.50;;;;;;;;;;5009540;28;20041;-76
2022/03/11 13:20:29;;;;;;;22.95;13.82;;;;;;;;;;5026976;28;20038;-74
2022/03/11 13:22:56;;;;;;;23.35;13.80;;;;;;;;;;5009326;28;20044;-74
2022/03/11 13:25:29;;;;;;;25.95;14.85;;;;;;;;;;4992912;28;20045;-73
2022/03/11 13:27:57;;;;;;;27.10;15.65;;;;;;;;;;5009486;28;20048;-75
2022/03/11 13:30:30;;;;;;;27.17;13.82;;;;;;;;;;5026560;28;20038;-73
2022/03/11 13:32:56;;;;;;;25.50;13.75;;;;;;;;;;5009056;28;20037;-72
2022/03/11 13:35:29;;;;;;;27.02;14.68;;;;;;;;;;5026156;28;20073;-74
2022/03/11 13:37:55;;;;;;;26.67;12.60;;;;;;;;;;5018278;28;20075;-76
2022/03/11 13:40:22;;;;;;;28.02;15.30;;;;;;;;;;5026623;28;20033;-73
2022/03/11 13:42:59;;;;;;;23.27;13.48;;;;;;;;;;5027010;28;20126;-74
2022/03/11 13:45:27;;;;;;;27.50;14.98;;;;;;;;;;4992321;28;20057;-73
2022/03/11 13:48:06;;;;;;;23.08;13.23;;;;;;;;;;5026107;28;20045;-76
2022/03/11 13:50:32;;;;;;;26.63;14.07;;;;;;;;;;5009268;28;20041;-74
2022/03/11 13:52:59;;;;;;;25.13;14.40;;;;;;;;;;5008597;28;20145;-75
2022/03/11 13:55:39;;;;;;;26.38;13.75;;;;;;;;;;5008464;28;20044;-75
2022/03/11 13:58:15;;;;;;;22.85;13.23;;;;;;;;;;5008529;28;20065;-75
2022/03/11 14:00:40;;;;;;;;;;;;;;;;;;5009530;28;20493;-74
2022/03/11 14:03:23;;;;;;;24.67;14.20;;;;;;;;;;5008676;28;19929;-73
2022/03/11 14:05:50;;;;;;;22.15;13.07;;;;;;;;;;5008844;28;20073;-74
2022/03/11 14:08:23;;;;;;;27.35;15.05;;;;;;;;;;5008945;28;20494;-75
2022/03/11 14:10:50;;;;;;;20.10;11.57;;;;;;;;;;5026619;28;20037;-76
2022/03/11 14:13:18;;;;;;;26.88;13.50;;;;;;;;;;5008221;28;20128;-73
2022/03/11 14:15:46;;;;;;;21.83;12.77;;;;;;;;;;5008741;28;20037;-74
2022/03/11 14:18:13;;;;;;;17.85;9.70;;;;;;;;;;5008516;28;20221;-75
2022/03/11 14:20:40;;;;;;;23.50;13.90;;;;;;;;;;4992490;28;20041;-74
2022/03/11 14:23:06;;;;;;;24.40;14.43;;;;;;;;;;5029485;28;20076;-75
2022/03/11 14:25:32;;;;;;;24.00;14.93;;;;;;;;;;5011180;28;20046;-72